createdAt,value
2018-12-15T00:00:22.509Z,8.30
2018-12-15T00:00:56.452Z,8.13
2018-12-15T00:01:30.425Z,7.42
2018-12-15T00:02:06.402Z,8.58
2018-12-15T00:02:40.903Z,7.83
2018-12-15T00:03:14.713Z,8.25
2018-12-15T00:03:48.800Z,7.95
2018-12-15T00:04:22.860Z,8.58
2018-12-15T00:04:57.246Z,7.28
2018-12-15T00:05:31.317Z,8.20
2018-12-15T00:06:05.224Z,7.55
2018-12-15T00:06:43.082Z,7.50
2018-12-15T00:07:17.117Z,7.85
2018-12-15T00:08:35.179Z,7.70
2018-12-15T00:09:09.306Z,7.35
2018-12-15T00:09:43.291Z,7.72
2018-12-15T00:10:17.609Z,7.33
2018-12-15T00:10:52.083Z,7.83
2018-12-15T00:11:26.266Z,7.62
2018-12-15T00:12:00.429Z,7.35
2018-12-15T00:12:34.600Z,7.28
2018-12-15T00:13:08.594Z,7.25
2018-12-15T00:13:42.389Z,7.60
2018-12-15T00:14:17.486Z,7.17
2018-12-15T00:14:51.832Z,7.33
2018-12-15T00:15:26.025Z,7.25
2018-12-15T00:15:59.722Z,7.35
2018-12-15T00:16:33.659Z,8.23
2018-12-15T00:17:07.574Z,7.47
2018-12-15T00:17:41.667Z,7.53
2018-12-15T00:18:16.770Z,7.85
2018-12-15T00:18:50.761Z,7.75
2018-12-15T00:19:24.720Z,7.50
2018-12-15T00:19:58.910Z,7.12
2018-12-15T00:20:33.503Z,7.05
2018-12-15T00:21:07.530Z,6.92
2018-12-15T00:21:41.217Z,7.37
2018-12-15T00:22:16.091Z,7.37
2018-12-15T00:22:51.245Z,7.45
2018-12-15T00:23:25.186Z,7.72
2018-12-15T00:23:59.096Z,6.85
2018-12-15T00:24:33.772Z,6.72
2018-12-15T00:25:08.153Z,7.58
2018-12-15T00:25:42.514Z,7.75
2018-12-15T00:26:16.572Z,7.33
2018-12-15T00:26:54.088Z,7.55
2018-12-15T00:28:14.100Z,7.80
2018-12-15T00:28:49.538Z,7.45
2018-12-15T00:29:23.516Z,7.25
2018-12-15T00:29:57.359Z,7.95
2018-12-15T00:30:31.479Z,7.95
2018-12-15T00:31:06.149Z,7.40
2018-12-15T00:31:40.061Z,7.62
2018-12-15T00:32:57.975Z,7.83
2018-12-15T00:33:31.917Z,7.67
2018-12-15T00:34:05.829Z,7.67
2018-12-15T00:34:39.720Z,7.78
2018-12-15T00:35:13.673Z,7.72
2018-12-15T00:35:47.763Z,7.45
2018-12-15T00:36:21.519Z,7.60
2018-12-15T00:36:55.336Z,7.47
2018-12-15T00:37:29.020Z,7.00
2018-12-15T00:38:02.834Z,7.28
2018-12-15T00:38:36.869Z,7.17
2018-12-15T00:39:10.830Z,7.20
2018-12-15T00:39:44.514Z,7.25
2018-12-15T00:40:18.306Z,7.35
2018-12-15T00:40:52.271Z,8.03
2018-12-15T00:41:26.054Z,7.75
2018-12-15T00:41:59.902Z,8.03
2018-12-15T00:42:35.275Z,7.53
2018-12-15T00:43:09.259Z,7.70
2018-12-15T00:43:43.171Z,7.40
2018-12-15T00:44:17.194Z,7.55
2018-12-15T00:44:50.946Z,8.03
2018-12-15T00:45:24.794Z,8.30
2018-12-15T00:45:58.745Z,7.92
2018-12-15T00:46:36.493Z,7.85
2018-12-15T00:47:13.760Z,7.60
2018-12-15T00:47:46.540Z,8.18
2018-12-15T00:48:20.887Z,7.08
2018-12-15T00:48:54.998Z,7.58
2018-12-15T00:49:28.972Z,8.00
2018-12-15T00:50:02.873Z,7.47
2018-12-15T00:50:36.473Z,7.20
2018-12-15T00:51:10.465Z,6.97
2018-12-15T00:51:44.281Z,7.37
2018-12-15T00:52:18.242Z,7.08
2018-12-15T00:52:52.155Z,7.30
2018-12-15T00:53:26.097Z,6.87
2018-12-15T00:54:00.126Z,7.85
2018-12-15T00:54:34.101Z,7.15
2018-12-15T00:55:08.111Z,7.60
2018-12-15T00:55:46.333Z,7.35
2018-12-15T00:56:20.737Z,7.83
2018-12-15T00:56:54.712Z,8.45
2018-12-15T00:57:28.715Z,7.97
2018-12-15T00:58:02.595Z,7.67
2018-12-15T00:58:36.618Z,7.05
2018-12-15T00:59:10.606Z,7.25
2018-12-15T00:59:44.546Z,7.45
2018-12-15T01:00:18.532Z,7.85
2018-12-15T01:00:52.286Z,7.30
2018-12-15T01:01:26.238Z,7.85
2018-12-15T01:01:59.966Z,8.10
2018-12-15T01:02:33.857Z,7.60
2018-12-15T01:03:07.705Z,7.75
2018-12-15T01:03:41.653Z,7.55
2018-12-15T01:04:15.542Z,7.72
2018-12-15T01:04:49.387Z,7.80
2018-12-15T01:05:23.290Z,7.92
2018-12-15T01:05:57.142Z,7.30
2018-12-15T01:06:31.105Z,7.55
2018-12-15T01:07:05.011Z,7.35
2018-12-15T01:07:38.878Z,7.83
2018-12-15T01:08:12.983Z,7.42
2018-12-15T01:08:46.761Z,7.50
2018-12-15T01:09:20.746Z,7.83
2018-12-15T01:09:54.653Z,8.05
2018-12-15T01:10:28.530Z,7.85
2018-12-15T01:11:02.461Z,8.88
2018-12-15T01:11:36.385Z,7.12
2018-12-15T01:12:10.349Z,7.85
2018-12-15T01:12:44.118Z,7.67
2018-12-15T01:13:18.065Z,7.53
2018-12-15T01:13:51.850Z,8.05
2018-12-15T01:14:27.167Z,7.85
2018-12-15T01:15:01.581Z,7.92
2018-12-15T01:15:41.204Z,7.37
2018-12-15T01:16:15.158Z,7.25
2018-12-15T01:16:49.137Z,7.10
2018-12-15T01:17:22.703Z,7.80
2018-12-15T01:17:56.359Z,7.03
2018-12-15T01:18:30.433Z,7.33
2018-12-15T01:19:04.303Z,7.90
2018-12-15T01:19:38.111Z,7.45
2018-12-15T01:20:11.969Z,7.30
2018-12-15T01:20:45.738Z,7.47
2018-12-15T01:21:19.714Z,7.95
2018-12-15T01:21:53.730Z,8.25
2018-12-15T01:22:27.647Z,7.87
2018-12-15T01:23:01.432Z,7.83
2018-12-15T01:23:35.432Z,7.95
2018-12-15T01:24:09.427Z,8.33
2018-12-15T01:24:43.434Z,7.62
2018-12-15T01:25:18.296Z,8.48
2018-12-15T01:25:52.127Z,7.90
2018-12-15T01:26:26.212Z,7.60
2018-12-15T01:26:59.897Z,7.70
2018-12-15T01:27:34.465Z,8.58
2018-12-15T01:28:08.373Z,8.30
2018-12-15T01:28:42.300Z,8.55
2018-12-15T01:29:17.089Z,8.75
2018-12-15T01:29:57.985Z,8.20
2018-12-15T01:30:31.906Z,8.35
2018-12-15T01:31:05.885Z,8.63
2018-12-15T01:31:39.815Z,8.53
2018-12-15T01:32:13.825Z,8.33
2018-12-15T01:32:47.834Z,8.30
2018-12-15T01:33:22.862Z,8.30
2018-12-15T01:33:56.876Z,8.20
2018-12-15T01:34:30.659Z,8.90
2018-12-15T01:35:04.819Z,8.15
2018-12-15T01:35:39.647Z,8.65
2018-12-15T01:36:13.390Z,8.83
2018-12-15T01:36:47.283Z,8.33
2018-12-15T01:37:21.130Z,8.68
2018-12-15T01:37:55.227Z,9.43
2018-12-15T01:38:29.411Z,8.78
2018-12-15T01:39:06.075Z,9.48
2018-12-15T01:39:40.075Z,8.83
2018-12-15T01:40:13.944Z,9.28
2018-12-15T01:40:47.992Z,8.83
2018-12-15T01:41:21.974Z,8.45
2018-12-15T01:41:56.477Z,8.70
2018-12-15T01:42:30.586Z,8.75
2018-12-15T01:43:05.137Z,8.20
2018-12-15T01:43:39.886Z,8.18
2018-12-15T01:44:13.838Z,8.90
2018-12-15T01:44:47.757Z,8.83
2018-12-15T01:45:21.551Z,8.03
2018-12-15T01:45:56.151Z,8.80
2018-12-15T01:46:30.187Z,8.78
2018-12-15T01:47:04.079Z,9.03
2018-12-15T01:47:38.041Z,9.25
2018-12-15T01:48:11.982Z,9.18
2018-12-15T01:48:45.966Z,9.10
2018-12-15T01:49:19.761Z,8.38
2018-12-15T01:49:54.419Z,8.95
2018-12-15T01:50:28.324Z,9.10
2018-12-15T01:51:02.215Z,9.05
2018-12-15T01:51:36.731Z,8.90
2018-12-15T01:52:10.566Z,8.83
2018-12-15T01:52:44.590Z,9.63
2018-12-15T01:53:18.470Z,9.68
2018-12-15T01:53:52.463Z,9.73
2018-12-15T01:54:26.326Z,9.08
2018-12-15T01:55:00.305Z,9.15
2018-12-15T01:55:34.224Z,8.70
2018-12-15T01:56:09.159Z,9.73
2018-12-15T01:56:46.134Z,9.03
2018-12-15T01:57:19.967Z,9.35
2018-12-15T01:57:53.759Z,10.10
2018-12-15T01:58:27.786Z,8.90
2018-12-15T01:59:01.559Z,9.43
2018-12-15T01:59:36.091Z,9.35
2018-12-15T02:00:12.354Z,8.63
2018-12-15T02:00:46.293Z,8.85
2018-12-15T02:01:20.249Z,9.38
2018-12-15T02:01:54.245Z,9.38
2018-12-15T02:02:28.177Z,9.30
2018-12-15T02:03:02.162Z,9.28
2018-12-15T02:03:36.472Z,9.33
2018-12-15T02:04:10.370Z,9.53
2018-12-15T02:04:44.217Z,9.43
2018-12-15T02:05:18.678Z,7.92
2018-12-15T02:05:52.554Z,9.13
2018-12-15T02:06:26.549Z,8.80
2018-12-15T02:07:00.613Z,8.80
2018-12-15T02:07:34.554Z,8.58
2018-12-15T02:08:09.666Z,8.53
2018-12-15T02:08:43.541Z,8.88
2018-12-15T02:09:17.459Z,9.13
2018-12-15T02:09:51.302Z,8.80
2018-12-15T02:10:25.375Z,9.05
2018-12-15T02:10:59.271Z,9.10
2018-12-15T02:11:33.462Z,8.50
2018-12-15T02:12:07.518Z,9.08
2018-12-15T02:12:41.537Z,9.65
2018-12-15T02:13:15.521Z,9.08
2018-12-15T02:13:49.549Z,9.63
2018-12-15T02:14:23.409Z,8.95
2018-12-15T02:14:57.365Z,9.25
2018-12-15T02:15:31.334Z,9.70
2018-12-15T02:16:05.310Z,9.55
2018-12-15T02:16:39.030Z,9.43
2018-12-15T02:17:12.965Z,9.95
2018-12-15T02:17:50.298Z,9.33
2018-12-15T02:18:24.185Z,9.35
2018-12-15T02:18:58.126Z,9.43
2018-12-15T02:19:32.089Z,10.15
2018-12-15T02:20:06.235Z,10.20
2018-12-15T02:20:40.242Z,10.00
2018-12-15T02:21:14.135Z,9.83
2018-12-15T02:21:48.107Z,9.83
2018-12-15T02:22:22.023Z,9.98
2018-12-15T02:22:56.484Z,9.20
2018-12-15T02:23:30.416Z,9.60
2018-12-15T02:24:04.472Z,9.28
2018-12-15T02:24:38.404Z,9.83
2018-12-15T02:25:12.431Z,10.25
2018-12-15T02:25:46.353Z,9.90
2018-12-15T02:26:20.115Z,9.88
2018-12-15T02:26:54.079Z,9.75
2018-12-15T02:27:27.969Z,10.32
2018-12-15T02:28:02.005Z,9.15
2018-12-15T02:28:36.818Z,9.73
2018-12-15T02:29:12.861Z,10.53
2018-12-15T02:29:46.681Z,10.03
2018-12-15T02:30:20.637Z,10.10
2018-12-15T02:30:55.003Z,9.88
2018-12-15T02:31:29.525Z,10.45
2018-12-15T02:32:03.426Z,10.72
2018-12-15T02:32:37.402Z,9.78
2018-12-15T02:33:11.358Z,10.25
2018-12-15T02:33:45.970Z,10.40
2018-12-15T02:34:19.950Z,10.05
2018-12-15T02:34:54.049Z,10.13
2018-12-15T02:35:28.617Z,11.20
2018-12-15T02:36:02.591Z,10.88
2018-12-15T02:36:37.305Z,10.78
2018-12-15T02:37:11.336Z,11.08
2018-12-15T02:37:45.307Z,10.90
2018-12-15T02:38:19.201Z,11.45
2018-12-15T02:38:53.506Z,10.18
2018-12-15T02:39:27.481Z,10.88
2018-12-15T02:40:01.230Z,10.88
2018-12-15T02:40:35.138Z,10.70
2018-12-15T02:41:08.902Z,10.90
2018-12-15T02:41:47.152Z,10.65
2018-12-15T02:42:18.729Z,11.33
2018-12-15T02:42:52.535Z,11.60
2018-12-15T02:43:26.414Z,11.33
2018-12-15T02:44:00.390Z,11.35
2018-12-15T02:44:34.278Z,10.30
2018-12-15T02:45:07.942Z,10.38
2018-12-15T02:45:42.674Z,10.53
2018-12-15T02:46:17.095Z,10.65
2018-12-15T02:46:50.934Z,11.57
2018-12-15T02:47:24.914Z,10.55
2018-12-15T02:47:58.951Z,11.45
2018-12-15T02:48:33.174Z,11.20
2018-12-15T02:49:07.984Z,10.72
2018-12-15T02:49:42.327Z,11.83
2018-12-15T02:50:16.290Z,11.63
2018-12-15T02:50:50.184Z,10.25
2018-12-15T02:51:24.148Z,11.05
2018-12-15T02:51:57.885Z,11.03
2018-12-15T02:52:31.789Z,10.65
2018-12-15T02:53:06.465Z,11.93
2018-12-15T02:53:41.103Z,10.63
2018-12-15T02:54:15.004Z,11.38
2018-12-15T02:54:48.900Z,11.68
2018-12-15T02:55:22.547Z,11.28
2018-12-15T02:55:56.457Z,11.73
2018-12-15T02:56:30.382Z,11.08
2018-12-15T02:57:04.326Z,10.63
2018-12-15T02:57:38.286Z,11.35
2018-12-15T02:58:12.149Z,11.50
2018-12-15T02:58:46.032Z,10.53
2018-12-15T02:59:20.327Z,11.40
2018-12-15T02:59:54.376Z,12.13
2018-12-15T03:00:29.195Z,11.35
2018-12-15T03:01:03.722Z,11.28
2018-12-15T03:01:37.572Z,10.43
2018-12-15T03:02:11.573Z,11.75
2018-12-15T03:02:46.766Z,11.40
2018-12-15T03:03:20.595Z,11.38
2018-12-15T03:03:55.116Z,10.38
2018-12-15T03:04:29.084Z,11.03
2018-12-15T03:05:03.426Z,11.40
2018-12-15T03:05:37.317Z,11.50
2018-12-15T03:06:11.399Z,11.57
2018-12-15T03:06:45.364Z,11.08
2018-12-15T03:07:20.231Z,10.95
2018-12-15T03:07:54.266Z,10.93
2018-12-15T03:08:28.269Z,10.13
2018-12-15T03:09:02.023Z,10.72
2018-12-15T03:09:35.944Z,11.00
2018-12-15T03:10:10.168Z,11.25
2018-12-15T03:10:43.985Z,10.48
2018-12-15T03:11:17.910Z,10.98
2018-12-15T03:11:51.831Z,10.20
2018-12-15T03:12:25.736Z,10.63
2018-12-15T03:12:59.653Z,11.33
2018-12-15T03:13:33.459Z,11.48
2018-12-15T03:14:07.207Z,10.53
2018-12-15T03:14:41.244Z,11.25
2018-12-15T03:15:15.070Z,11.08
2018-12-15T03:15:49.031Z,11.25
2018-12-15T03:16:22.822Z,10.85
2018-12-15T03:17:04.861Z,11.20
2018-12-15T03:17:38.745Z,11.33
2018-12-15T03:18:12.713Z,10.72
2018-12-15T03:18:46.581Z,11.30
2018-12-15T03:19:20.586Z,10.55
2018-12-15T03:20:00.935Z,11.05
2018-12-15T03:20:34.614Z,11.12
2018-12-15T03:21:08.668Z,10.80
2018-12-15T03:21:42.845Z,10.20
2018-12-15T03:22:16.785Z,10.60
2018-12-15T03:22:50.605Z,11.43
2018-12-15T03:23:24.549Z,10.58
2018-12-15T03:23:58.542Z,11.08
2018-12-15T03:24:32.554Z,12.07
2018-12-15T03:25:06.460Z,10.50
2018-12-15T03:25:40.295Z,10.43
2018-12-15T03:26:14.902Z,10.18
2018-12-15T03:26:49.431Z,10.80
2018-12-15T03:27:23.378Z,10.15
2018-12-15T03:27:57.295Z,10.60
2018-12-15T03:28:31.190Z,10.48
2018-12-15T03:29:05.034Z,10.75
2018-12-15T03:29:38.877Z,10.25
2018-12-15T03:30:13.062Z,10.23
2018-12-15T03:30:47.894Z,10.10
2018-12-15T03:31:21.898Z,10.93
2018-12-15T03:31:55.891Z,11.18
2018-12-15T03:32:29.742Z,11.03
2018-12-15T03:33:04.920Z,11.33
2018-12-15T03:33:38.851Z,10.15
2018-12-15T03:34:12.747Z,10.93
2018-12-15T03:34:46.698Z,9.90
2018-12-15T03:35:20.683Z,10.32
2018-12-15T03:35:54.755Z,9.75
2018-12-15T03:36:28.543Z,10.53
2018-12-15T03:37:05.242Z,10.85
2018-12-15T03:37:39.141Z,10.32
2018-12-15T03:38:13.072Z,10.30
2018-12-15T03:38:47.022Z,10.53
2018-12-15T03:39:20.980Z,10.20
2018-12-15T03:39:55.217Z,10.50
2018-12-15T03:40:29.233Z,10.78
2018-12-15T03:41:03.228Z,9.75
2018-12-15T03:41:37.391Z,10.60
2018-12-15T03:42:11.276Z,10.68
2018-12-15T03:42:45.681Z,10.15
2018-12-15T03:43:19.625Z,10.28
2018-12-15T03:43:53.705Z,9.53
2018-12-15T03:44:27.750Z,9.83
2018-12-15T03:45:01.782Z,9.63
2018-12-15T03:45:35.857Z,9.93
2018-12-15T03:46:09.918Z,9.65
2018-12-15T03:46:44.369Z,9.40
2018-12-15T03:47:18.409Z,10.43
2018-12-15T03:47:56.209Z,9.13
2018-12-15T03:48:29.037Z,9.05
2018-12-15T03:49:03.254Z,9.85
2018-12-15T03:49:37.110Z,9.95
2018-12-15T03:50:11.015Z,9.25
2018-12-15T03:50:44.997Z,9.83
2018-12-15T03:51:18.757Z,9.43
2018-12-15T03:51:52.676Z,10.20
2018-12-15T03:52:26.751Z,9.73
2018-12-15T03:53:04.167Z,9.60
2018-12-15T03:53:38.059Z,9.93
2018-12-15T03:54:11.852Z,9.80
2018-12-15T03:54:45.809Z,10.05
2018-12-15T03:55:19.634Z,9.03
2018-12-15T03:55:53.834Z,9.50
2018-12-15T03:56:29.192Z,9.18
2018-12-15T03:57:03.066Z,9.98
2018-12-15T03:57:36.786Z,9.75
2018-12-15T03:58:10.720Z,8.75
2018-12-15T03:58:45.119Z,8.80
2018-12-15T03:59:19.670Z,8.30
2018-12-15T03:59:53.662Z,8.93
2018-12-15T04:00:27.436Z,8.95
2018-12-15T04:01:01.490Z,9.20
2018-12-15T04:01:35.372Z,8.83
2018-12-15T04:02:09.231Z,8.48
2018-12-15T04:02:43.188Z,8.80
2018-12-15T04:03:17.034Z,9.55
2018-12-15T04:03:50.961Z,9.28
2018-12-15T04:04:25.317Z,8.90
2018-12-15T04:04:59.290Z,9.38
2018-12-15T04:05:33.151Z,9.50
2018-12-15T04:06:06.968Z,8.88
2018-12-15T04:06:40.810Z,9.25
2018-12-15T04:07:15.353Z,9.40
2018-12-15T04:07:49.196Z,9.10
2018-12-15T04:08:23.028Z,9.43
2018-12-15T04:08:57.055Z,8.43
2018-12-15T04:09:31.155Z,8.85
2018-12-15T04:10:05.419Z,9.03
2018-12-15T04:10:39.819Z,9.30
2018-12-15T04:11:13.762Z,9.30
2018-12-15T04:11:47.603Z,8.45
2018-12-15T04:12:21.444Z,9.25
2018-12-15T04:12:55.358Z,9.38
2018-12-15T04:13:29.446Z,8.68
2018-12-15T04:14:03.942Z,9.30
2018-12-15T04:14:38.775Z,8.85
2018-12-15T04:15:12.702Z,9.15
2018-12-15T04:15:46.644Z,9.88
2018-12-15T04:16:20.595Z,8.93
2018-12-15T04:16:54.694Z,9.10
2018-12-15T04:17:28.602Z,10.03
2018-12-15T04:18:03.818Z,9.13
2018-12-15T04:18:37.898Z,9.28
2018-12-15T04:19:12.231Z,8.93
2018-12-15T04:19:46.115Z,8.50
2018-12-15T04:20:19.962Z,9.15
2018-12-15T04:20:53.763Z,9.18
2018-12-15T04:21:27.661Z,8.90
2018-12-15T04:22:13.051Z,9.63
2018-12-15T04:22:47.126Z,9.50
2018-12-15T04:23:21.000Z,9.03
2018-12-15T04:23:55.294Z,9.35
2018-12-15T04:24:29.209Z,10.25
2018-12-15T04:25:03.401Z,8.98
2018-12-15T04:25:38.167Z,9.10
2018-12-15T04:26:12.293Z,9.65
2018-12-15T04:26:46.219Z,9.13
2018-12-15T04:27:20.087Z,9.53
2018-12-15T04:27:54.480Z,9.40
2018-12-15T04:28:28.371Z,9.30
2018-12-15T04:29:02.534Z,9.00
2018-12-15T04:29:36.472Z,9.43
2018-12-15T04:30:10.499Z,9.48
2018-12-15T04:30:44.886Z,10.18
2018-12-15T04:31:18.729Z,9.35
2018-12-15T04:31:52.782Z,9.33
2018-12-15T04:32:26.909Z,10.08
2018-12-15T04:33:00.771Z,9.90
2018-12-15T04:33:34.707Z,9.38
2018-12-15T04:34:08.732Z,9.15
2018-12-15T04:34:42.815Z,9.75
2018-12-15T04:35:16.502Z,9.35
2018-12-15T04:35:50.425Z,10.53
2018-12-15T04:36:24.484Z,10.63
2018-12-15T04:36:58.768Z,9.80
2018-12-15T04:37:32.841Z,9.48
2018-12-15T04:38:06.933Z,9.78
2018-12-15T04:38:41.572Z,10.25
2018-12-15T04:39:15.275Z,9.70
2018-12-15T04:39:49.271Z,8.85
2018-12-15T04:40:23.201Z,9.55
2018-12-15T04:40:56.972Z,9.65
2018-12-15T04:41:30.967Z,9.73
2018-12-15T04:42:04.975Z,10.38
2018-12-15T04:42:38.820Z,9.23
2018-12-15T04:43:12.849Z,10.00
2018-12-15T04:43:46.663Z,10.43
2018-12-15T04:44:22.209Z,10.40
2018-12-15T04:44:56.128Z,9.85
2018-12-15T04:45:29.973Z,9.70
2018-12-15T04:46:03.952Z,9.60
2018-12-15T04:46:37.837Z,9.18
2018-12-15T04:47:12.259Z,10.10
2018-12-15T04:47:46.267Z,9.53
2018-12-15T04:48:20.372Z,10.03
2018-12-15T04:48:54.199Z,9.50
2018-12-15T04:49:28.352Z,9.43
2018-12-15T04:50:02.431Z,10.20
2018-12-15T04:50:36.438Z,10.40
2018-12-15T04:51:10.043Z,10.13
2018-12-15T04:51:44.749Z,10.03
2018-12-15T04:52:18.603Z,9.83
2018-12-15T04:52:52.483Z,9.78
2018-12-15T04:53:26.416Z,9.50
2018-12-15T04:54:00.415Z,9.63
2018-12-15T04:54:34.201Z,9.65
2018-12-15T04:55:08.324Z,9.63
2018-12-15T04:55:42.410Z,10.35
2018-12-15T04:56:16.161Z,9.10
2018-12-15T04:56:50.018Z,9.00
2018-12-15T04:57:24.037Z,9.98
2018-12-15T04:57:57.863Z,9.23
2018-12-15T04:58:31.773Z,9.23
2018-12-15T04:59:06.210Z,10.20
2018-12-15T04:59:40.116Z,9.28
2018-12-15T05:00:15.166Z,9.68
2018-12-15T05:00:49.129Z,9.48
2018-12-15T05:01:23.073Z,9.63
2018-12-15T05:01:56.940Z,10.18
2018-12-15T05:02:31.012Z,9.85
2018-12-15T05:03:04.856Z,10.20
2018-12-15T05:03:38.879Z,9.80
2018-12-15T05:04:12.877Z,10.10
2018-12-15T05:04:47.310Z,9.23
2018-12-15T05:05:21.176Z,10.00
2018-12-15T05:05:55.050Z,10.20
2018-12-15T05:06:29.073Z,9.63
2018-12-15T05:07:03.185Z,9.90
2018-12-15T05:07:36.919Z,10.28
2018-12-15T05:08:10.942Z,10.18
2018-12-15T05:08:45.051Z,10.63
2018-12-15T05:09:18.722Z,10.30
2018-12-15T05:09:52.665Z,9.98
2018-12-15T05:10:26.663Z,9.68
2018-12-15T05:11:00.523Z,10.32
2018-12-15T05:11:34.339Z,10.23
2018-12-15T05:12:08.328Z,9.75
2018-12-15T05:12:42.167Z,10.38
2018-12-15T05:13:16.023Z,10.75
2018-12-15T05:13:49.908Z,10.90
2018-12-15T05:14:23.929Z,10.05
2018-12-15T05:14:57.766Z,9.80
2018-12-15T05:15:31.700Z,10.23
2018-12-15T05:16:05.721Z,10.70
2018-12-15T05:16:39.725Z,10.82
2018-12-15T05:17:13.599Z,10.38
2018-12-15T05:17:47.488Z,9.60
2018-12-15T05:18:21.533Z,10.58
2018-12-15T05:18:55.478Z,9.73
2018-12-15T05:19:29.541Z,9.43
2018-12-15T05:20:03.975Z,10.63
2018-12-15T05:20:37.786Z,10.80
2018-12-15T05:21:12.073Z,10.00
2018-12-15T05:21:45.955Z,9.98
2018-12-15T05:22:20.031Z,11.03
2018-12-15T05:22:53.829Z,9.43
2018-12-15T05:23:27.822Z,10.00
2018-12-15T05:24:01.713Z,10.53
2018-12-15T05:24:37.503Z,10.05
2018-12-15T05:25:11.560Z,9.43
2018-12-15T05:25:47.363Z,10.78
2018-12-15T05:26:24.915Z,10.48
2018-12-15T05:26:58.871Z,9.90
2018-12-15T05:27:32.957Z,10.38
2018-12-15T05:28:06.911Z,10.30
2018-12-15T05:28:40.966Z,9.60
2018-12-15T05:29:14.929Z,9.65
2018-12-15T05:29:49.293Z,9.93
2018-12-15T05:30:23.047Z,10.48
2018-12-15T05:30:57.071Z,10.35
2018-12-15T05:31:31.085Z,10.72
2018-12-15T05:32:04.999Z,9.90
2018-12-15T05:32:39.056Z,10.38
2018-12-15T05:33:13.000Z,10.18
2018-12-15T05:33:47.017Z,9.93
2018-12-15T05:34:20.801Z,9.68
2018-12-15T05:34:54.782Z,10.32
2018-12-15T05:35:28.759Z,10.08
2018-12-15T05:36:02.569Z,9.65
2018-12-15T05:36:36.372Z,10.00
2018-12-15T05:37:10.222Z,10.68
2018-12-15T05:37:44.083Z,9.80
2018-12-15T05:38:18.035Z,10.50
2018-12-15T05:38:51.931Z,9.83
2018-12-15T05:39:25.860Z,10.53
2018-12-15T05:39:59.774Z,10.55
2018-12-15T05:40:34.015Z,10.50
2018-12-15T05:41:07.946Z,10.20
2018-12-15T05:41:42.399Z,9.58
2018-12-15T05:42:16.419Z,10.45
2018-12-15T05:42:51.298Z,10.20
2018-12-15T05:43:25.038Z,10.32
2018-12-15T05:43:58.987Z,10.48
2018-12-15T05:44:32.823Z,10.40
2018-12-15T05:45:06.819Z,10.10
2018-12-15T05:45:40.580Z,9.18
2018-12-15T05:46:14.281Z,10.95
2018-12-15T05:46:49.079Z,10.65
2018-12-15T05:47:23.054Z,10.63
2018-12-15T05:47:56.884Z,10.78
2018-12-15T05:48:31.530Z,10.18
2018-12-15T05:49:05.355Z,10.20
2018-12-15T05:49:39.987Z,10.05
2018-12-15T05:50:13.970Z,10.38
2018-12-15T05:50:47.803Z,10.18
2018-12-15T05:51:21.847Z,10.43
2018-12-15T05:51:56.534Z,9.55
2018-12-15T05:52:31.451Z,10.00
2018-12-15T05:53:05.513Z,11.03
2018-12-15T05:53:39.414Z,11.22
2018-12-15T05:54:13.376Z,10.53
2018-12-15T05:54:48.582Z,10.10
2018-12-15T05:55:22.296Z,10.60
2018-12-15T05:55:56.247Z,11.08
2018-12-15T05:56:30.047Z,10.25
2018-12-15T05:57:04.295Z,11.00
2018-12-15T05:57:38.062Z,10.45
2018-12-15T05:58:12.032Z,10.10
2018-12-15T05:58:46.218Z,10.28
2018-12-15T05:59:20.008Z,10.95
2018-12-15T05:59:53.913Z,10.80
2018-12-15T06:00:27.980Z,9.93
2018-12-15T06:01:01.937Z,10.82
2018-12-15T06:01:35.722Z,10.80
2018-12-15T06:02:12.054Z,10.35
2018-12-15T06:02:45.831Z,10.20
2018-12-15T06:03:20.345Z,10.50
2018-12-15T06:03:54.233Z,11.48
2018-12-15T06:04:28.140Z,10.98
2018-12-15T06:05:02.214Z,10.63
2018-12-15T06:05:36.257Z,11.12
2018-12-15T06:06:10.225Z,10.60
2018-12-15T06:06:44.223Z,10.85
2018-12-15T06:07:18.190Z,10.63
2018-12-15T06:07:52.302Z,11.30
2018-12-15T06:08:25.988Z,11.22
2018-12-15T06:08:59.896Z,11.60
2018-12-15T06:09:33.962Z,11.00
2018-12-15T06:10:08.406Z,10.15
2018-12-15T06:10:42.424Z,11.15
2018-12-15T06:11:16.227Z,10.68
2018-12-15T06:11:50.074Z,11.70
2018-12-15T06:12:24.171Z,10.10
2018-12-15T06:12:58.783Z,10.80
2018-12-15T06:13:32.769Z,10.68
2018-12-15T06:14:06.708Z,10.63
2018-12-15T06:14:40.943Z,10.65
2018-12-15T06:15:14.862Z,11.00
2018-12-15T06:15:49.331Z,10.58
2018-12-15T06:16:23.333Z,10.35
2018-12-15T06:16:57.105Z,11.25
2018-12-15T06:17:30.879Z,11.18
2018-12-15T06:18:04.770Z,11.73
2018-12-15T06:18:38.916Z,11.63
2018-12-15T06:19:12.881Z,11.40
2018-12-15T06:19:47.038Z,11.38
2018-12-15T06:20:21.069Z,10.88
2018-12-15T06:20:54.938Z,11.08
2018-12-15T06:21:28.783Z,11.50
2018-12-15T06:22:02.955Z,11.22
2018-12-15T06:22:37.031Z,9.98
2018-12-15T06:23:11.048Z,10.53
2018-12-15T06:23:44.827Z,11.78
2018-12-15T06:24:18.846Z,11.33
2018-12-15T06:24:52.644Z,11.05
2018-12-15T06:25:26.634Z,10.45
2018-12-15T06:26:00.599Z,9.90
2018-12-15T06:26:34.665Z,11.25
2018-12-15T06:27:08.957Z,10.32
2018-12-15T06:27:42.982Z,10.48
2018-12-15T06:28:17.134Z,9.63
2018-12-15T06:28:51.232Z,10.28
2018-12-15T06:29:25.122Z,10.78
2018-12-15T06:29:59.048Z,10.75
2018-12-15T06:30:32.982Z,10.00
2018-12-15T06:31:13.976Z,10.20
2018-12-15T06:31:47.988Z,10.50
2018-12-15T06:32:21.988Z,10.10
2018-12-15T06:32:56.063Z,10.43
2018-12-15T06:33:29.902Z,9.90
2018-12-15T06:34:03.871Z,9.88
2018-12-15T06:34:37.762Z,11.65
2018-12-15T06:35:11.669Z,10.65
2018-12-15T06:35:45.562Z,10.15
2018-12-15T06:36:19.439Z,10.15
2018-12-15T06:36:53.399Z,10.32
2018-12-15T06:37:27.344Z,10.53
2018-12-15T06:38:01.353Z,10.28
2018-12-15T06:38:35.454Z,11.33
2018-12-15T06:39:09.498Z,9.88
2018-12-15T06:39:43.310Z,10.88
2018-12-15T06:40:17.390Z,10.18
2018-12-15T06:40:51.357Z,10.18
2018-12-15T06:41:25.140Z,10.63
2018-12-15T06:41:59.080Z,11.45
2018-12-15T06:42:32.986Z,12.00
2018-12-15T06:43:06.903Z,10.13
2018-12-15T06:43:43.597Z,10.00
2018-12-15T06:44:17.482Z,9.70
2018-12-15T06:44:51.858Z,10.65
2018-12-15T06:45:25.836Z,10.38
2018-12-15T06:45:59.861Z,10.45
2018-12-15T06:46:33.618Z,11.15
2018-12-15T06:47:08.374Z,10.38
2018-12-15T06:47:43.059Z,10.80
2018-12-15T06:48:16.832Z,11.05
2018-12-15T06:48:50.855Z,11.20
2018-12-15T06:49:25.444Z,10.18
2018-12-15T06:49:59.514Z,10.85
2018-12-15T06:50:33.909Z,9.88
2018-12-15T06:51:07.742Z,10.75
2018-12-15T06:51:41.501Z,10.85
2018-12-15T06:52:16.229Z,11.48
2018-12-15T06:52:50.091Z,11.40
2018-12-15T06:53:24.090Z,10.60
2018-12-15T06:53:58.059Z,11.18
2018-12-15T06:54:32.510Z,10.65
2018-12-15T06:55:06.842Z,10.72
2018-12-15T06:55:40.564Z,10.65
2018-12-15T06:56:14.470Z,10.23
2018-12-15T06:56:48.542Z,10.65
2018-12-15T06:57:22.409Z,11.35
2018-12-15T06:57:56.249Z,10.65
2018-12-15T06:58:30.241Z,11.15
2018-12-15T06:59:04.565Z,10.53
2018-12-15T06:59:38.648Z,11.00
2018-12-15T07:00:12.847Z,11.55
2018-12-15T07:00:47.018Z,11.33
2018-12-15T07:01:21.030Z,10.88
2018-12-15T07:01:54.839Z,10.63
2018-12-15T07:02:28.898Z,11.22
2018-12-15T07:03:02.815Z,10.85
2018-12-15T07:03:36.855Z,11.05
2018-12-15T07:04:10.733Z,11.08
2018-12-15T07:04:44.692Z,10.20
2018-12-15T07:05:18.631Z,11.45
2018-12-15T07:05:52.483Z,10.55
2018-12-15T07:06:26.266Z,11.35
2018-12-15T07:07:00.197Z,11.05
2018-12-15T07:07:34.647Z,12.20
2018-12-15T07:08:08.699Z,10.80
2018-12-15T07:08:42.390Z,11.33
2018-12-15T07:09:16.410Z,10.60
2018-12-15T07:09:50.471Z,11.22
2018-12-15T07:10:24.462Z,11.73
2018-12-15T07:10:58.353Z,11.30
2018-12-15T07:11:32.285Z,10.85
2018-12-15T07:12:06.475Z,11.40
2018-12-15T07:12:40.330Z,11.95
2018-12-15T07:13:14.694Z,11.00
2018-12-15T07:13:48.507Z,11.97
2018-12-15T07:14:22.379Z,10.80
2018-12-15T07:14:56.326Z,11.80
2018-12-15T07:15:30.320Z,11.43
2018-12-15T07:16:04.215Z,11.80
2018-12-15T07:16:38.165Z,11.00
2018-12-15T07:17:12.059Z,9.95
2018-12-15T07:17:45.916Z,10.80
2018-12-15T07:18:19.736Z,10.93
2018-12-15T07:18:56.658Z,11.40
2018-12-15T07:19:30.458Z,11.00
2018-12-15T07:20:05.635Z,10.95
2018-12-15T07:20:39.570Z,10.80
2018-12-15T07:21:13.401Z,10.20
2018-12-15T07:21:47.319Z,10.68
2018-12-15T07:22:21.367Z,11.05
2018-12-15T07:22:55.667Z,11.12
2018-12-15T07:23:29.419Z,11.57
2018-12-15T07:24:03.499Z,11.55
2018-12-15T07:24:37.479Z,11.55
2018-12-15T07:25:12.097Z,10.58
2018-12-15T07:25:46.075Z,11.95
2018-12-15T07:26:20.048Z,11.53
2018-12-15T07:26:53.957Z,10.90
2018-12-15T07:27:28.053Z,10.58
2018-12-15T07:28:02.566Z,10.28
2018-12-15T07:28:36.376Z,10.95
2018-12-15T07:29:11.131Z,11.28
2018-12-15T07:29:44.958Z,10.23